sensor_id;sensor_type;location;lat;lon;timestamp;P1;durP1;ratioP1;P2;durP2;ratioP2
679;SDS011;322;48.846;9.230;2023-03-19T00:00:08;12.57;;;9.63;;
679;SDS011;322;48.846;9.230;2023-03-19T00:02:37;14.77;;;10.50;;
679;SDS011;322;48.846;9.230;2023-03-19T00:05:05;14.53;;;10.20;;
679;SDS011;322;48.846;9.230;2023-03-19T00:07:33;14.90;;;10.00;;
679;SDS011;322;48.846;9.230;2023-03-19T00:10:00;13.67;;;9.83;;
679;SDS011;322;48.846;9.230;2023-03-19T00:12:27;12.03;;;9.90;;
679;SDS011;322;48.846;9.230;2023-03-19T00:14:53;12.80;;;9.97;;
679;SDS011;322;48.846;9.230;2023-03-19T00:17:20;13.50;;;11.90;;
679;SDS011;322;48.846;9.230;2023-03-19T00:19:47;14.23;;;10.70;;
679;SDS011;322;48.846;9.230;2023-03-19T00:22:14;11.47;;;8.93;;
679;SDS011;322;48.846;9.230;2023-03-19T00:24:42;11.87;;;9.30;;
679;SDS011;322;48.846;9.230;2023-03-19T00:27:09;12.63;;;9.43;;
679;SDS011;322;48.846;9.230;2023-03-19T00:29:36;12.23;;;9.23;;
679;SDS011;322;48.846;9.230;2023-03-19T00:32:03;11.97;;;9.47;;
679;SDS011;322;48.846;9.230;2023-03-19T00:34:31;12.03;;;9.33;;
679;SDS011;322;48.846;9.230;2023-03-19T00:36:58;12.93;;;10.20;;
679;SDS011;322;48.846;9.230;2023-03-19T00:39:24;16.40;;;12.47;;
679;SDS011;322;48.846;9.230;2023-03-19T00:41:52;19.33;;;16.60;;
679;SDS011;322;48.846;9.230;2023-03-19T00:44:19;26.97;;;22.70;;
679;SDS011;322;48.846;9.230;2023-03-19T00:46:46;17.20;;;15.23;;
679;SDS011;322;48.846;9.230;2023-03-19T00:49:13;17.17;;;13.60;;
679;SDS011;322;48.846;9.230;2023-03-19T00:51:39;15.90;;;12.83;;
679;SDS011;322;48.846;9.230;2023-03-19T00:54:08;14.40;;;12.73;;
679;SDS011;322;48.846;9.230;2023-03-19T00:56:36;14.33;;;12.80;;
679;SDS011;322;48.846;9.230;2023-03-19T00:59:04;16.60;;;11.93;;
679;SDS011;322;48.846;9.230;2023-03-19T01:01:31;13.97;;;12.37;;
679;SDS011;322;48.846;9.230;2023-03-19T01:03:58;13.97;;;12.53;;
679;SDS011;322;48.846;9.230;2023-03-19T01:06:25;14.97;;;11.77;;
679;SDS011;322;48.846;9.230;2023-03-19T01:08:52;13.73;;;11.70;;
679;SDS011;322;48.846;9.230;2023-03-19T01:11:19;15.33;;;12.43;;
679;SDS011;322;48.846;9.230;2023-03-19T01:13:45;14.90;;;11.37;;
679;SDS011;322;48.846;9.230;2023-03-19T01:16:13;13.53;;;11.30;;
679;SDS011;322;48.846;9.230;2023-03-19T01:18:40;14.40;;;10.20;;
679;SDS011;322;48.846;9.230;2023-03-19T01:21:07;11.83;;;10.23;;
679;SDS011;322;48.846;9.230;2023-03-19T01:23:34;9.80;;;8.80;;
679;SDS011;322;48.846;9.230;2023-03-19T01:26:01;12.43;;;9.27;;
679;SDS011;322;48.846;9.230;2023-03-19T01:28:29;14.53;;;9.40;;
679;SDS011;322;48.846;9.230;2023-03-19T01:30:59;12.80;;;9.63;;
679;SDS011;322;48.846;9.230;2023-03-19T01:33:28;16.30;;;9.67;;
679;SDS011;322;48.846;9.230;2023-03-19T01:35:55;9.80;;;8.80;;
679;SDS011;322;48.846;9.230;2023-03-19T01:38:23;11.17;;;9.70;;
679;SDS011;322;48.846;9.230;2023-03-19T01:40:50;10.27;;;9.23;;
679;SDS011;322;48.846;9.230;2023-03-19T01:43:18;10.60;;;9.50;;
679;SDS011;322;48.846;9.230;2023-03-19T01:45:46;11.27;;;9.60;;
679;SDS011;322;48.846;9.230;2023-03-19T01:48:16;13.67;;;9.27;;
679;SDS011;322;48.846;9.230;2023-03-19T01:50:50;11.10;;;9.87;;
679;SDS011;322;48.846;9.230;2023-03-19T01:53:20;13.93;;;9.50;;
679;SDS011;322;48.846;9.230;2023-03-19T01:55:50;13.93;;;11.10;;
679;SDS011;322;48.846;9.230;2023-03-19T01:58:20;12.67;;;9.67;;
679;SDS011;322;48.846;9.230;2023-03-19T02:00:47;11.13;;;9.53;;
679;SDS011;322;48.846;9.230;2023-03-19T02:03:14;15.67;;;11.33;;
679;SDS011;322;48.846;9.230;2023-03-19T02:05:41;12.57;;;10.73;;
679;SDS011;322;48.846;9.230;2023-03-19T02:08:13;13.30;;;9.70;;
679;SDS011;322;48.846;9.230;2023-03-19T02:10:41;13.93;;;10.00;;
679;SDS011;322;48.846;9.230;2023-03-19T02:13:09;14.80;;;10.43;;
679;SDS011;322;48.846;9.230;2023-03-19T02:15:37;17.60;;;10.37;;
679;SDS011;322;48.846;9.230;2023-03-19T02:18:04;14.47;;;9.73;;
679;SDS011;322;48.846;9.230;2023-03-19T02:20:34;12.53;;;9.80;;
679;SDS011;322;48.846;9.230;2023-03-19T02:23:08;8.93;;;7.90;;
679;SDS011;322;48.846;9.230;2023-03-19T02:25:50;8.80;;;7.90;;
679;SDS011;322;48.846;9.230;2023-03-19T02:28:22;8.07;;;5.53;;
679;SDS011;322;48.846;9.230;2023-03-19T02:30:50;6.70;;;5.03;;
679;SDS011;322;48.846;9.230;2023-03-19T02:33:18;5.57;;;4.77;;
679;SDS011;322;48.846;9.230;2023-03-19T02:35:46;5.80;;;4.50;;
679;SDS011;322;48.846;9.230;2023-03-19T02:38:15;5.53;;;3.83;;
679;SDS011;322;48.846;9.230;2023-03-19T02:40:43;8.10;;;4.90;;
679;SDS011;322;48.846;9.230;2023-03-19T02:43:15;9.80;;;7.80;;
679;SDS011;322;48.846;9.230;2023-03-19T02:45:42;8.80;;;7.17;;
679;SDS011;322;48.846;9.230;2023-03-19T02:48:09;7.20;;;4.97;;
679;SDS011;322;48.846;9.230;2023-03-19T02:50:36;6.57;;;4.73;;
679;SDS011;322;48.846;9.230;2023-03-19T02:53:02;5.50;;;4.60;;
679;SDS011;322;48.846;9.230;2023-03-19T02:55:29;10.00;;;8.07;;
679;SDS011;322;48.846;9.230;2023-03-19T02:57:56;10.77;;;8.90;;
679;SDS011;322;48.846;9.230;2023-03-19T03:00:24;10.00;;;8.87;;
679;SDS011;322;48.846;9.230;2023-03-19T03:02:52;10.00;;;9.03;;
679;SDS011;322;48.846;9.230;2023-03-19T03:05:20;9.50;;;8.23;;
679;SDS011;322;48.846;9.230;2023-03-19T03:07:47;8.27;;;7.00;;
679;SDS011;322;48.846;9.230;2023-03-19T03:10:14;8.63;;;7.40;;
679;SDS011;322;48.846;9.230;2023-03-19T03:12:41;10.47;;;8.10;;
679;SDS011;322;48.846;9.230;2023-03-19T03:15:08;11.90;;;8.73;;
679;SDS011;322;48.846;9.230;2023-03-19T03:17:37;9.63;;;8.63;;
679;SDS011;322;48.846;9.230;2023-03-19T03:20:05;8.40;;;7.50;;
679;SDS011;322;48.846;9.230;2023-03-19T03:22:33;9.40;;;8.50;;
679;SDS011;322;48.846;9.230;2023-03-19T03:25:00;11.90;;;10.17;;
679;SDS011;322;48.846;9.230;2023-03-19T03:27:27;14.43;;;9.50;;
679;SDS011;322;48.846;9.230;2023-03-19T03:29:54;10.87;;;9.77;;
679;SDS011;322;48.846;9.230;2023-03-19T03:32:21;9.00;;;8.20;;
679;SDS011;322;48.846;9.230;2023-03-19T03:34:49;9.87;;;8.47;;
679;SDS011;322;48.846;9.230;2023-03-19T03:37:16;8.83;;;8.00;;
679;SDS011;322;48.846;9.230;2023-03-19T03:39:43;9.37;;;8.47;;
679;SDS011;322;48.846;9.230;2023-03-19T03:42:10;8.73;;;7.93;;
679;SDS011;322;48.846;9.230;2023-03-19T03:44:37;9.80;;;8.27;;
679;SDS011;322;48.846;9.230;2023-03-19T03:47:04;8.67;;;7.70;;
679;SDS011;322;48.846;9.230;2023-03-19T03:49:31;8.67;;;7.87;;
679;SDS011;322;48.846;9.230;2023-03-19T03:51:59;9.60;;;8.60;;
679;SDS011;322;48.846;9.230;2023-03-19T03:54:26;10.80;;;9.00;;
679;SDS011;322;48.846;9.230;2023-03-19T03:56:52;11.43;;;10.23;;
679;SDS011;322;48.846;9.230;2023-03-19T03:59:19;13.77;;;9.77;;
679;SDS011;322;48.846;9.230;2023-03-19T04:01:46;9.33;;;8.43;;
679;SDS011;322;48.846;9.230;2023-03-19T04:04:13;9.60;;;8.07;;
679;SDS011;322;48.846;9.230;2023-03-19T04:06:40;8.50;;;7.60;;
679;SDS011;322;48.846;9.230;2023-03-19T04:09:08;9.30;;;8.37;;
679;SDS011;322;48.846;9.230;2023-03-19T04:11:34;9.27;;;8.00;;
679;SDS011;322;48.846;9.230;2023-03-19T04:14:02;9.13;;;7.83;;
679;SDS011;322;48.846;9.230;2023-03-19T04:16:29;10.10;;;7.90;;
679;SDS011;322;48.846;9.230;2023-03-19T04:18:56;8.33;;;7.60;;
679;SDS011;322;48.846;9.230;2023-03-19T04:21:23;8.50;;;7.70;;
679;SDS011;322;48.846;9.230;2023-03-19T04:23:50;10.17;;;9.17;;
679;SDS011;322;48.846;9.230;2023-03-19T04:26:18;9.20;;;8.30;;
679;SDS011;322;48.846;9.230;2023-03-19T04:28:45;9.47;;;8.50;;
679;SDS011;322;48.846;9.230;2023-03-19T04:31:12;8.80;;;8.00;;
679;SDS011;322;48.846;9.230;2023-03-19T04:33:39;10.47;;;8.33;;
679;SDS011;322;48.846;9.230;2023-03-19T04:36:06;8.77;;;7.87;;
679;SDS011;322;48.846;9.230;2023-03-19T04:38:33;9.17;;;8.27;;
679;SDS011;322;48.846;9.230;2023-03-19T04:41:00;9.37;;;8.47;;
679;SDS011;322;48.846;9.230;2023-03-19T04:43:29;9.73;;;8.73;;
679;SDS011;322;48.846;9.230;2023-03-19T04:45:56;8.60;;;7.90;;
679;SDS011;322;48.846;9.230;2023-03-19T04:48:23;12.50;;;8.97;;
679;SDS011;322;48.846;9.230;2023-03-19T04:50:50;9.53;;;8.73;;
679;SDS011;322;48.846;9.230;2023-03-19T04:53:21;8.93;;;8.03;;
679;SDS011;322;48.846;9.230;2023-03-19T04:55:48;8.00;;;7.30;;
679;SDS011;322;48.846;9.230;2023-03-19T04:58:15;8.17;;;7.33;;
679;SDS011;322;48.846;9.230;2023-03-19T05:00:44;8.47;;;7.60;;
679;SDS011;322;48.846;9.230;2023-03-19T05:03:11;7.20;;;6.60;;
679;SDS011;322;48.846;9.230;2023-03-19T05:05:38;10.90;;;8.80;;
679;SDS011;322;48.846;9.230;2023-03-19T05:08:05;9.30;;;8.50;;
679;SDS011;322;48.846;9.230;2023-03-19T05:10:32;8.17;;;7.30;;
679;SDS011;322;48.846;9.230;2023-03-19T05:12:59;9.80;;;7.67;;
679;SDS011;322;48.846;9.230;2023-03-19T05:15:26;8.77;;;7.77;;
679;SDS011;322;48.846;9.230;2023-03-19T05:17:54;8.93;;;8.13;;
679;SDS011;322;48.846;9.230;2023-03-19T05:20:21;9.43;;;8.40;;
679;SDS011;322;48.846;9.230;2023-03-19T05:22:49;8.57;;;7.87;;
679;SDS011;322;48.846;9.230;2023-03-19T05:25:17;8.87;;;7.97;;
679;SDS011;322;48.846;9.230;2023-03-19T05:27:44;8.90;;;7.90;;
679;SDS011;322;48.846;9.230;2023-03-19T05:30:11;9.70;;;8.80;;
679;SDS011;322;48.846;9.230;2023-03-19T05:32:38;8.43;;;7.63;;
679;SDS011;322;48.846;9.230;2023-03-19T05:35:07;8.50;;;7.73;;
679;SDS011;322;48.846;9.230;2023-03-19T05:37:34;8.87;;;7.93;;
679;SDS011;322;48.846;9.230;2023-03-19T05:40:01;9.53;;;7.90;;
679;SDS011;322;48.846;9.230;2023-03-19T05:42:28;8.60;;;7.17;;
679;SDS011;322;48.846;9.230;2023-03-19T05:44:55;9.70;;;8.50;;
679;SDS011;322;48.846;9.230;2023-03-19T05:47:22;8.40;;;7.60;;
679;SDS011;322;48.846;9.230;2023-03-19T05:49:48;8.47;;;7.67;;
679;SDS011;322;48.846;9.230;2023-03-19T05:52:16;8.53;;;7.63;;
679;SDS011;322;48.846;9.230;2023-03-19T05:54:43;9.47;;;7.87;;
679;SDS011;322;48.846;9.230;2023-03-19T05:57:13;9.00;;;7.37;;
679;SDS011;322;48.846;9.230;2023-03-19T05:59:40;6.90;;;6.20;;
679;SDS011;322;48.846;9.230;2023-03-19T06:02:07;6.63;;;6.03;;
679;SDS011;322;48.846;9.230;2023-03-19T06:04:34;6.87;;;6.27;;
679;SDS011;322;48.846;9.230;2023-03-19T06:07:01;7.70;;;6.70;;
679;SDS011;322;48.846;9.230;2023-03-19T06:09:29;7.17;;;6.47;;
679;SDS011;322;48.846;9.230;2023-03-19T06:11:56;7.20;;;6.50;;
679;SDS011;322;48.846;9.230;2023-03-19T06:14:23;10.17;;;7.07;;
679;SDS011;322;48.846;9.230;2023-03-19T06:16:50;7.87;;;6.80;;
679;SDS011;322;48.846;9.230;2023-03-19T06:19:17;10.80;;;8.03;;
679;SDS011;322;48.846;9.230;2023-03-19T06:21:44;10.57;;;7.30;;
679;SDS011;322;48.846;9.230;2023-03-19T06:24:10;8.77;;;7.93;;
679;SDS011;322;48.846;9.230;2023-03-19T06:26:38;7.87;;;7.07;;
679;SDS011;322;48.846;9.230;2023-03-19T06:29:05;7.47;;;6.87;;
679;SDS011;322;48.846;9.230;2023-03-19T06:31:32;7.60;;;6.90;;
679;SDS011;322;48.846;9.230;2023-03-19T06:33:59;7.67;;;6.97;;
679;SDS011;322;48.846;9.230;2023-03-19T06:36:26;8.80;;;8.00;;
679;SDS011;322;48.846;9.230;2023-03-19T06:38:53;7.10;;;6.43;;
679;SDS011;322;48.846;9.230;2023-03-19T06:41:21;6.50;;;6.00;;
679;SDS011;322;48.846;9.230;2023-03-19T06:43:50;8.60;;;7.10;;
679;SDS011;322;48.846;9.230;2023-03-19T06:46:17;7.80;;;7.00;;
679;SDS011;322;48.846;9.230;2023-03-19T06:48:44;7.17;;;6.67;;
679;SDS011;322;48.846;9.230;2023-03-19T06:51:10;7.07;;;6.43;;
679;SDS011;322;48.846;9.230;2023-03-19T06:53:37;7.20;;;6.50;;
679;SDS011;322;48.846;9.230;2023-03-19T06:56:04;6.57;;;5.97;;
679;SDS011;322;48.846;9.230;2023-03-19T06:58:31;7.83;;;6.30;;
679;SDS011;322;48.846;9.230;2023-03-19T07:01:00;6.43;;;5.80;;
679;SDS011;322;48.846;9.230;2023-03-19T07:03:27;6.53;;;5.93;;
679;SDS011;322;48.846;9.230;2023-03-19T07:05:54;6.17;;;5.30;;
679;SDS011;322;48.846;9.230;2023-03-19T07:08:21;6.53;;;5.90;;
679;SDS011;322;48.846;9.230;2023-03-19T07:10:51;6.70;;;5.07;;
679;SDS011;322;48.846;9.230;2023-03-19T07:13:18;6.03;;;5.50;;
679;SDS011;322;48.846;9.230;2023-03-19T07:15:46;9.10;;;6.13;;
679;SDS011;322;48.846;9.230;2023-03-19T07:18:15;5.47;;;5.00;;
679;SDS011;322;48.846;9.230;2023-03-19T07:20:42;6.27;;;5.30;;
679;SDS011;322;48.846;9.230;2023-03-19T07:23:09;7.07;;;5.53;;
679;SDS011;322;48.846;9.230;2023-03-19T07:25:36;8.03;;;5.90;;
679;SDS011;322;48.846;9.230;2023-03-19T07:28:03;6.37;;;5.13;;
679;SDS011;322;48.846;9.230;2023-03-19T07:30:30;6.23;;;5.63;;
679;SDS011;322;48.846;9.230;2023-03-19T07:32:57;5.77;;;5.27;;
679;SDS011;322;48.846;9.230;2023-03-19T07:35:25;6.97;;;5.30;;
679;SDS011;322;48.846;9.230;2023-03-19T07:37:51;5.07;;;4.63;;
679;SDS011;322;48.846;9.230;2023-03-19T07:40:18;5.33;;;4.83;;
679;SDS011;322;48.846;9.230;2023-03-19T07:42:45;5.87;;;4.00;;
679;SDS011;322;48.846;9.230;2023-03-19T07:45:12;4.80;;;4.30;;
679;SDS011;322;48.846;9.230;2023-03-19T07:47:39;4.77;;;3.83;;
679;SDS011;322;48.846;9.230;2023-03-19T07:50:06;5.17;;;4.47;;
679;SDS011;322;48.846;9.230;2023-03-19T07:52:35;4.97;;;3.83;;
679;SDS011;322;48.846;9.230;2023-03-19T07:55:02;4.33;;;3.87;;
679;SDS011;322;48.846;9.230;2023-03-19T07:57:29;4.13;;;3.50;;
679;SDS011;322;48.846;9.230;2023-03-19T07:59:56;4.40;;;4.00;;
679;SDS011;322;48.846;9.230;2023-03-19T08:02:23;4.20;;;3.80;;
679;SDS011;322;48.846;9.230;2023-03-19T08:04:50;5.10;;;3.70;;
679;SDS011;322;48.846;9.230;2023-03-19T08:07:17;3.37;;;3.07;;
679;SDS011;322;48.846;9.230;2023-03-19T08:09:45;5.03;;;3.53;;
679;SDS011;322;48.846;9.230;2023-03-19T08:12:12;4.20;;;3.50;;
679;SDS011;322;48.846;9.230;2023-03-19T08:14:39;5.30;;;4.27;;
679;SDS011;322;48.846;9.230;2023-03-19T08:17:06;4.50;;;3.50;;
679;SDS011;322;48.846;9.230;2023-03-19T08:19:33;5.40;;;3.83;;
679;SDS011;322;48.846;9.230;2023-03-19T08:22:00;5.40;;;4.10;;
679;SDS011;322;48.846;9.230;2023-03-19T08:24:26;5.10;;;3.90;;
679;SDS011;322;48.846;9.230;2023-03-19T08:26:55;4.23;;;3.70;;
679;SDS011;322;48.846;9.230;2023-03-19T08:29:21;5.50;;;4.50;;
679;SDS011;322;48.846;9.230;2023-03-19T08:31:50;4.40;;;3.40;;
679;SDS011;322;48.846;9.230;2023-03-19T08:34:17;3.70;;;3.50;;
679;SDS011;322;48.846;9.230;2023-03-19T08:36:44;3.93;;;3.50;;
679;SDS011;322;48.846;9.230;2023-03-19T08:39:10;4.80;;;3.50;;
679;SDS011;322;48.846;9.230;2023-03-19T08:41:37;4.43;;;3.37;;
679;SDS011;322;48.846;9.230;2023-03-19T08:44:05;4.73;;;3.50;;
679;SDS011;322;48.846;9.230;2023-03-19T08:46:32;4.23;;;3.53;;
679;SDS011;322;48.846;9.230;2023-03-19T08:48:59;3.70;;;3.40;;
679;SDS011;322;48.846;9.230;2023-03-19T08:51:26;3.73;;;3.37;;
679;SDS011;322;48.846;9.230;2023-03-19T08:53:55;4.10;;;3.30;;
679;SDS011;322;48.846;9.230;2023-03-19T08:56:21;4.30;;;3.47;;
679;SDS011;322;48.846;9.230;2023-03-19T08:58:48;4.87;;;3.57;;
679;SDS011;322;48.846;9.230;2023-03-19T09:01:16;4.93;;;3.57;;
679;SDS011;322;48.846;9.230;2023-03-19T09:03:43;7.00;;;4.07;;
679;SDS011;322;48.846;9.230;2023-03-19T09:06:10;4.30;;;3.43;;
679;SDS011;322;48.846;9.230;2023-03-19T09:08:38;5.23;;;3.47;;
679;SDS011;322;48.846;9.230;2023-03-19T09:11:05;3.93;;;3.63;;
679;SDS011;322;48.846;9.230;2023-03-19T09:13:32;4.67;;;3.30;;
679;SDS011;322;48.846;9.230;2023-03-19T09:15:59;3.93;;;3.60;;
679;SDS011;322;48.846;9.230;2023-03-19T09:18:27;3.57;;;3.27;;
679;SDS011;322;48.846;9.230;2023-03-19T09:20:54;5.40;;;2.73;;
679;SDS011;322;48.846;9.230;2023-03-19T09:23:21;4.27;;;2.90;;
679;SDS011;322;48.846;9.230;2023-03-19T09:25:48;4.47;;;3.30;;
679;SDS011;322;48.846;9.230;2023-03-19T09:28:15;4.20;;;3.43;;
679;SDS011;322;48.846;9.230;2023-03-19T09:30:44;3.97;;;3.17;;
679;SDS011;322;48.846;9.230;2023-03-19T09:33:12;3.10;;;2.80;;
679;SDS011;322;48.846;9.230;2023-03-19T09:35:40;3.20;;;2.67;;
679;SDS011;322;48.846;9.230;2023-03-19T09:38:07;4.13;;;2.97;;
679;SDS011;322;48.846;9.230;2023-03-19T09:40:35;10.30;;;3.40;;
679;SDS011;322;48.846;9.230;2023-03-19T09:43:11;2.80;;;2.60;;
679;SDS011;322;48.846;9.230;2023-03-19T09:45:45;3.50;;;2.90;;
679;SDS011;322;48.846;9.230;2023-03-19T09:48:13;3.13;;;2.73;;
679;SDS011;322;48.846;9.230;2023-03-19T09:50:46;3.23;;;2.50;;
679;SDS011;322;48.846;9.230;2023-03-19T09:53:17;4.87;;;2.37;;
679;SDS011;322;48.846;9.230;2023-03-19T09:55:51;3.17;;;2.63;;
679;SDS011;322;48.846;9.230;2023-03-19T09:58:19;2.83;;;2.47;;
679;SDS011;322;48.846;9.230;2023-03-19T10:00:48;4.10;;;3.20;;
679;SDS011;322;48.846;9.230;2023-03-19T10:03:34;2.97;;;2.50;;
679;SDS011;322;48.846;9.230;2023-03-19T10:06:20;2.70;;;2.17;;
679;SDS011;322;48.846;9.230;2023-03-19T10:08:59;2.70;;;2.40;;
679;SDS011;322;48.846;9.230;2023-03-19T10:11:46;3.67;;;2.60;;
679;SDS011;322;48.846;9.230;2023-03-19T10:14:33;6.77;;;2.70;;
679;SDS011;322;48.846;9.230;2023-03-19T10:17:28;4.07;;;2.70;;
679;SDS011;322;48.846;9.230;2023-03-19T10:20:00;3.47;;;2.60;;
679;SDS011;322;48.846;9.230;2023-03-19T10:22:32;2.67;;;2.17;;
679;SDS011;322;48.846;9.230;2023-03-19T10:25:03;2.77;;;2.27;;
679;SDS011;322;48.846;9.230;2023-03-19T10:27:34;2.40;;;2.20;;
679;SDS011;322;48.846;9.230;2023-03-19T10:30:10;3.20;;;2.90;;
679;SDS011;322;48.846;9.230;2023-03-19T10:32:39;3.73;;;3.10;;
679;SDS011;322;48.846;9.230;2023-03-19T10:35:10;3.00;;;2.70;;
679;SDS011;322;48.846;9.230;2023-03-19T10:37:45;4.23;;;3.00;;
679;SDS011;322;48.846;9.230;2023-03-19T10:40:16;3.03;;;2.73;;
679;SDS011;322;48.846;9.230;2023-03-19T10:42:52;4.70;;;2.90;;
679;SDS011;322;48.846;9.230;2023-03-19T10:45:31;3.67;;;3.37;;
679;SDS011;322;48.846;9.230;2023-03-19T10:48:00;2.63;;;2.40;;
679;SDS011;322;48.846;9.230;2023-03-19T10:50:29;3.57;;;3.10;;
679;SDS011;322;48.846;9.230;2023-03-19T10:53:02;4.13;;;2.93;;
679;SDS011;322;48.846;9.230;2023-03-19T10:55:32;5.80;;;2.83;;
679;SDS011;322;48.846;9.230;2023-03-19T10:58:04;2.80;;;2.50;;
679;SDS011;322;48.846;9.230;2023-03-19T11:00:32;3.07;;;2.60;;
679;SDS011;322;48.846;9.230;2023-03-19T11:03:00;3.00;;;2.40;;
679;SDS011;322;48.846;9.230;2023-03-19T11:05:29;3.50;;;3.00;;
679;SDS011;322;48.846;9.230;2023-03-19T11:07:58;3.03;;;2.50;;
679;SDS011;322;48.846;9.230;2023-03-19T11:10:29;2.70;;;2.50;;
679;SDS011;322;48.846;9.230;2023-03-19T11:12:58;3.60;;;2.43;;
679;SDS011;322;48.846;9.230;2023-03-19T11:15:30;3.93;;;2.30;;
679;SDS011;322;48.846;9.230;2023-03-19T11:18:00;2.80;;;2.40;;
679;SDS011;322;48.846;9.230;2023-03-19T11:20:33;2.80;;;2.20;;
679;SDS011;322;48.846;9.230;2023-03-19T11:23:05;4.60;;;2.30;;
679;SDS011;322;48.846;9.230;2023-03-19T11:25:39;3.10;;;2.17;;
679;SDS011;322;48.846;9.230;2023-03-19T11:28:07;4.33;;;2.00;;
679;SDS011;322;48.846;9.230;2023-03-19T11:30:39;2.43;;;2.20;;
679;SDS011;322;48.846;9.230;2023-03-19T11:33:17;2.17;;;1.97;;
679;SDS011;322;48.846;9.230;2023-03-19T11:36:08;3.33;;;1.77;;
679;SDS011;322;48.846;9.230;2023-03-19T11:38:39;2.67;;;2.13;;
679;SDS011;322;48.846;9.230;2023-03-19T11:41:28;3.27;;;2.27;;
679;SDS011;322;48.846;9.230;2023-03-19T11:44:04;2.53;;;2.10;;
679;SDS011;322;48.846;9.230;2023-03-19T11:46:41;3.10;;;1.90;;
679;SDS011;322;48.846;9.230;2023-03-19T11:49:14;2.17;;;1.63;;
679;SDS011;322;48.846;9.230;2023-03-19T11:51:58;3.27;;;1.97;;
679;SDS011;322;48.846;9.230;2023-03-19T11:54:34;3.33;;;2.33;;
679;SDS011;322;48.846;9.230;2023-03-19T11:57:11;2.80;;;2.30;;
679;SDS011;322;48.846;9.230;2023-03-19T11:59:49;2.07;;;1.70;;
679;SDS011;322;48.846;9.230;2023-03-19T12:02:31;3.30;;;2.20;;
679;SDS011;322;48.846;9.230;2023-03-19T12:05:20;2.27;;;2.07;;
679;SDS011;322;48.846;9.230;2023-03-19T12:07:56;4.60;;;2.30;;
679;SDS011;322;48.846;9.230;2023-03-19T12:10:38;3.70;;;2.90;;
679;SDS011;322;48.846;9.230;2023-03-19T12:13:15;4.50;;;2.20;;
679;SDS011;322;48.846;9.230;2023-03-19T12:15:54;2.20;;;2.00;;
679;SDS011;322;48.846;9.230;2023-03-19T12:18:30;3.90;;;2.37;;
679;SDS011;322;48.846;9.230;2023-03-19T12:21:19;3.50;;;2.17;;
679;SDS011;322;48.846;9.230;2023-03-19T12:23:56;2.33;;;2.07;;
679;SDS011;322;48.846;9.230;2023-03-19T12:26:30;3.00;;;2.00;;
679;SDS011;322;48.846;9.230;2023-03-19T12:29:07;3.40;;;2.47;;
679;SDS011;322;48.846;9.230;2023-03-19T12:34:51;2.90;;;2.00;;
679;SDS011;322;48.846;9.230;2023-03-19T12:37:23;3.40;;;1.63;;
679;SDS011;322;48.846;9.230;2023-03-19T12:40:04;2.30;;;2.10;;
679;SDS011;322;48.846;9.230;2023-03-19T12:42:39;2.13;;;1.97;;
679;SDS011;322;48.846;9.230;2023-03-19T12:45:17;2.23;;;2.03;;
679;SDS011;322;48.846;9.230;2023-03-19T12:47:50;4.93;;;2.43;;
679;SDS011;322;48.846;9.230;2023-03-19T12:50:23;2.53;;;2.00;;
679;SDS011;322;48.846;9.230;2023-03-19T12:52:52;3.13;;;2.33;;
679;SDS011;322;48.846;9.230;2023-03-19T12:55:24;3.20;;;2.47;;
679;SDS011;322;48.846;9.230;2023-03-19T12:58:00;2.30;;;2.10;;
679;SDS011;322;48.846;9.230;2023-03-19T13:00:33;3.23;;;2.83;;
679;SDS011;322;48.846;9.230;2023-03-19T13:03:04;2.80;;;2.40;;
679;SDS011;322;48.846;9.230;2023-03-19T13:05:38;3.10;;;2.57;;
679;SDS011;322;48.846;9.230;2023-03-19T13:08:10;3.50;;;2.60;;
679;SDS011;322;48.846;9.230;2023-03-19T13:10:42;4.90;;;2.27;;
679;SDS011;322;48.846;9.230;2023-03-19T13:13:13;3.07;;;2.50;;
679;SDS011;322;48.846;9.230;2023-03-19T13:15:53;4.90;;;2.67;;
679;SDS011;322;48.846;9.230;2023-03-19T13:18:25;2.53;;;2.33;;
679;SDS011;322;48.846;9.230;2023-03-19T13:21:03;3.57;;;3.27;;
679;SDS011;322;48.846;9.230;2023-03-19T13:23:42;8.17;;;3.10;;
679;SDS011;322;48.846;9.230;2023-03-19T13:26:11;6.37;;;3.40;;
679;SDS011;322;48.846;9.230;2023-03-19T13:28:52;6.17;;;3.90;;
679;SDS011;322;48.846;9.230;2023-03-19T13:31:23;7.17;;;3.27;;
679;SDS011;322;48.846;9.230;2023-03-19T13:33:52;4.67;;;3.10;;
679;SDS011;322;48.846;9.230;2023-03-19T13:36:26;5.50;;;4.03;;
679;SDS011;322;48.846;9.230;2023-03-19T13:38:54;6.20;;;4.20;;
679;SDS011;322;48.846;9.230;2023-03-19T13:44:33;3.03;;;2.10;;
679;SDS011;322;48.846;9.230;2023-03-19T13:50:10;7.30;;;3.23;;
679;SDS011;322;48.846;9.230;2023-03-19T13:52:48;4.67;;;3.40;;
679;SDS011;322;48.846;9.230;2023-03-19T13:55:28;3.90;;;3.10;;
679;SDS011;322;48.846;9.230;2023-03-19T13:58:01;3.13;;;2.47;;
679;SDS011;322;48.846;9.230;2023-03-19T14:00:55;2.57;;;2.37;;
679;SDS011;322;48.846;9.230;2023-03-19T14:03:25;2.57;;;2.00;;
679;SDS011;322;48.846;9.230;2023-03-19T14:05:54;1.70;;;1.60;;
679;SDS011;322;48.846;9.230;2023-03-19T14:08:23;5.20;;;3.20;;
679;SDS011;322;48.846;9.230;2023-03-19T14:10:52;2.93;;;2.63;;
679;SDS011;322;48.846;9.230;2023-03-19T14:13:25;3.53;;;2.30;;
679;SDS011;322;48.846;9.230;2023-03-19T14:16:00;5.20;;;1.83;;
679;SDS011;322;48.846;9.230;2023-03-19T14:18:33;4.30;;;2.63;;
679;SDS011;322;48.846;9.230;2023-03-19T14:21:08;4.03;;;2.73;;
679;SDS011;322;48.846;9.230;2023-03-19T14:23:39;5.83;;;1.90;;
679;SDS011;322;48.846;9.230;2023-03-19T14:26:09;4.53;;;2.43;;
679;SDS011;322;48.846;9.230;2023-03-19T14:31:27;4.27;;;3.83;;
679;SDS011;322;48.846;9.230;2023-03-19T14:34:00;4.93;;;3.70;;
679;SDS011;322;48.846;9.230;2023-03-19T14:36:33;6.07;;;4.60;;
679;SDS011;322;48.846;9.230;2023-03-19T14:39:06;3.40;;;3.10;;
679;SDS011;322;48.846;9.230;2023-03-19T14:41:38;4.27;;;3.80;;
679;SDS011;322;48.846;9.230;2023-03-19T14:44:15;3.23;;;2.70;;
679;SDS011;322;48.846;9.230;2023-03-19T14:47:13;4.07;;;3.07;;
679;SDS011;322;48.846;9.230;2023-03-19T14:49:53;3.80;;;2.90;;
679;SDS011;322;48.846;9.230;2023-03-19T14:52:37;5.30;;;3.63;;
679;SDS011;322;48.846;9.230;2023-03-19T14:55:08;4.37;;;3.67;;
679;SDS011;322;48.846;9.230;2023-03-19T14:57:38;5.67;;;3.67;;
679;SDS011;322;48.846;9.230;2023-03-19T15:00:05;3.17;;;2.60;;
679;SDS011;322;48.846;9.230;2023-03-19T15:02:39;4.27;;;3.63;;
679;SDS011;322;48.846;9.230;2023-03-19T15:05:09;5.73;;;4.13;;
679;SDS011;322;48.846;9.230;2023-03-19T15:07:42;5.70;;;3.47;;
679;SDS011;322;48.846;9.230;2023-03-19T15:10:13;3.43;;;3.23;;
679;SDS011;322;48.846;9.230;2023-03-19T15:12:54;3.80;;;2.70;;
679;SDS011;322;48.846;9.230;2023-03-19T15:15:32;3.20;;;2.90;;
679;SDS011;322;48.846;9.230;2023-03-19T15:18:06;3.50;;;2.60;;
679;SDS011;322;48.846;9.230;2023-03-19T15:20:37;3.80;;;2.10;;
679;SDS011;322;48.846;9.230;2023-03-19T15:23:08;4.87;;;2.53;;
679;SDS011;322;48.846;9.230;2023-03-19T15:25:42;5.30;;;2.83;;
679;SDS011;322;48.846;9.230;2023-03-19T15:28:11;4.00;;;2.33;;
679;SDS011;322;48.846;9.230;2023-03-19T15:30:39;3.20;;;2.10;;
679;SDS011;322;48.846;9.230;2023-03-19T15:33:16;5.30;;;2.20;;
679;SDS011;322;48.846;9.230;2023-03-19T15:35:49;2.30;;;2.10;;
679;SDS011;322;48.846;9.230;2023-03-19T15:38:17;4.57;;;2.50;;
679;SDS011;322;48.846;9.230;2023-03-19T15:40:44;4.10;;;2.00;;
679;SDS011;322;48.846;9.230;2023-03-19T15:43:11;2.73;;;2.37;;
679;SDS011;322;48.846;9.230;2023-03-19T15:45:38;3.40;;;2.43;;
679;SDS011;322;48.846;9.230;2023-03-19T15:48:10;2.90;;;2.03;;
679;SDS011;322;48.846;9.230;2023-03-19T15:50:45;3.53;;;2.47;;
679;SDS011;322;48.846;9.230;2023-03-19T15:53:17;2.60;;;2.27;;
679;SDS011;322;48.846;9.230;2023-03-19T15:55:46;3.53;;;2.50;;
679;SDS011;322;48.846;9.230;2023-03-19T15:58:16;3.80;;;2.60;;
679;SDS011;322;48.846;9.230;2023-03-19T16:00:47;3.63;;;2.57;;
679;SDS011;322;48.846;9.230;2023-03-19T16:03:17;4.70;;;3.37;;
679;SDS011;322;48.846;9.230;2023-03-19T16:05:50;3.60;;;2.30;;
679;SDS011;322;48.846;9.230;2023-03-19T16:08:26;2.77;;;2.53;;
679;SDS011;322;48.846;9.230;2023-03-19T16:10:53;3.63;;;2.47;;